LFOH

Le Havre Octeville Airport

Le Havre/Octeville, France
TAF LFOH 251100Z 2512/2612 25012KT CAVOK TEMPO 2512/2518 29020G30KT
Issued Valid From Valid To
Apr-25 @ 11:00 UTC
(7 hours ago)
Apr-25 @ 12:00 UTC
(6 hours ago)
Apr-26 @ 12:00 UTC
(in 18 hours)
Apr-25 @ 12:00 to Apr-26 @ 12:00
TAF LFOH 251100Z 2512/2612 25012KT CAVOK
Wind Visibility Clouds Conditions
250° at 12 knots 10,000+ meters
  • No significant clouds
Expired Click to View Apr-25 @ 12:00 to Apr-25 @ 18:00
TEMPO 2512/2518 29020G30KT
Wind
290° at 20 knots
 Gusting to 30 knots
TAF LFOH 251100Z 2512/2612 25012KT CAVOK TEMPO 2512/2518 29020G30KT
Issued Apr-25 @ 11:00 UTC
(7 hours ago)
Valid From Apr-25 @ 12:00 UTC
(6 hours ago)
Valid To Apr-26 @ 12:00 UTC
(in 18 hours)
Apr-25 @ 12:00 - Apr-26 @ 12:00
Wind Visibility
250° at 12 knots 10,000+ meters
Clouds
  • No significant clouds
Conditions
Apr-25 @ 12:00 - Apr-25 @ 18:00
Wind
290° at 20 knots
 Gusting to 30 knots